Time;durP1;ratioP1;P1;durP2;ratioP2;P2;SDS_P1;SDS_P2;PMS_P1;PMS_P2;Temp;Humidity;BMP_temperature;BMP_pressure;BME280_temperature;BME280_humidity;BME280_pressure;Samples;Min_cycle;Max_cycle;Signal;HPM_P1;HPM_P2
2022/03/09 00:00:20;;;;;;;14.20;3.83;;;;;;;10.85;100.00;99449.78;7395896;19;20010;-59
2022/03/09 00:02:46;;;;;;;7.13;2.72;;;;;;;10.85;100.00;99455.34;7396874;19;20018;-59
2022/03/09 00:05:11;;;;;;;12.30;3.92;;;;;;;10.83;100.00;99452.28;7395977;19;20015;-59
2022/03/09 00:07:37;;;;;;;18.30;4.70;;;;;;;10.82;100.00;99454.28;7395433;19;20027;-59
2022/03/09 00:10:04;;;;;;;5.55;3.40;;;;;;;10.89;100.00;99453.09;7396323;19;20038;-59
2022/03/09 00:12:30;;;;;;;14.57;5.65;;;;;;;10.91;100.00;99459.72;7396848;19;20074;-60
2022/03/09 00:14:56;;;;;;;7.90;3.42;;;;;;;10.92;100.00;99455.69;7397174;19;20015;-59
2022/03/09 00:17:22;;;;;;;12.13;3.65;;;;;;;10.90;100.00;99457.41;7397296;19;20021;-59
2022/03/09 00:19:47;;;;;;;15.10;4.65;;;;;;;10.89;100.00;99450.31;7396819;19;20045;-59
2022/03/09 00:22:13;;;;;;;13.10;5.20;;;;;;;10.83;100.00;99441.13;7393563;19;20103;-59
2022/03/09 00:24:42;;;;;;;14.68;5.40;;;;;;;10.72;100.00;99455.66;7394100;19;20007;-59
2022/03/09 00:27:08;;;;;;;6.47;3.80;;;;;;;10.68;100.00;99443.22;7395048;19;20046;-59
2022/03/09 00:29:34;;;;;;;7.05;4.53;;;;;;;10.70;100.00;99444.25;7394160;19;20006;-47
2022/03/09 00:32:01;;;;;;;8.30;3.78;;;;;;;10.71;100.00;99439.44;7393926;19;20042;-47
2022/03/09 00:34:26;;;;;;;10.38;3.50;;;;;;;10.63;100.00;99433.53;7392558;19;20359;-59
2022/03/09 00:36:52;;;;;;;11.07;5.03;;;;;;;10.54;100.00;99442.00;7394804;19;20066;-59
2022/03/09 00:39:17;;;;;;;12.30;3.97;;;;;;;10.58;100.00;99437.78;7393943;19;20011;-58
2022/03/09 00:41:43;;;;;;;14.80;4.15;;;;;;;10.68;100.00;99451.56;7396243;19;20006;-59
2022/03/09 00:44:08;;;;;;;13.43;3.72;;;;;;;10.72;100.00;99447.31;7394430;19;20014;-60
2022/03/09 00:46:34;;;;;;;10.23;4.07;;;;;;;10.65;100.00;99436.59;7393423;19;20337;-59
2022/03/09 00:49:01;;;;;;;9.57;4.57;;;;;;;10.63;100.00;99439.84;7393761;19;20014;-60
2022/03/09 00:51:26;;;;;;;12.02;4.28;;;;;;;10.57;100.00;99439.00;7393837;19;20025;-59
2022/03/09 00:53:52;;;;;;;14.82;4.30;;;;;;;10.64;100.00;99437.84;7392499;19;20058;-60
2022/03/09 00:56:18;;;;;;;7.03;3.30;;;;;;;10.63;100.00;99442.63;7391724;19;20006;-58
2022/03/09 00:58:44;;;;;;;13.68;3.28;;;;;;;10.65;100.00;99442.91;7393933;19;20039;-59
2022/03/09 01:01:10;;;;;;;13.73;4.72;;;;;;;10.63;100.00;99445.41;7396537;19;20460;-59
2022/03/09 01:03:36;;;;;;;14.38;3.85;;;;;;;10.63;100.00;99451.00;7393777;19;20490;-59
2022/03/09 01:06:03;;;;;;;10.15;3.47;;;;;;;10.68;100.00;99462.72;7394613;19;20010;-59
2022/03/09 01:08:28;;;;;;;8.23;3.25;;;;;;;10.60;100.00;99456.78;7393244;19;20078;-59
2022/03/09 01:10:54;;;;;;;11.25;2.65;;;;;;;10.59;100.00;99456.00;7394786;19;20455;-59
2022/03/09 01:13:19;;;;;;;5.28;2.58;;;;;;;10.60;100.00;99457.53;7393559;19;20348;-59
2022/03/09 01:15:45;;;;;;;10.98;3.22;;;;;;;10.51;100.00;99456.88;7393460;19;20006;-59
2022/03/09 01:18:10;;;;;;;20.55;4.78;;;;;;;10.43;100.00;99448.19;7392730;19;20009;-59
2022/03/09 01:20:36;;;;;;;5.55;2.85;;;;;;;10.31;100.00;99446.47;7393442;19;20015;-59
2022/03/09 01:23:02;;;;;;;14.07;3.60;;;;;;;10.17;100.00;99452.09;7393464;19;20527;-59
2022/03/09 01:25:27;;;;;;;11.18;3.15;;;;;;;10.03;100.00;99453.59;7392761;19;20007;-59
2022/03/09 01:27:53;;;;;;;4.40;2.47;;;;;;;9.97;100.00;99452.75;7393201;19;20014;-59
2022/03/09 01:30:18;;;;;;;9.60;2.85;;;;;;;9.89;100.00;99446.81;7392892;19;20034;-59
2022/03/09 01:32:44;;;;;;;18.05;2.92;;;;;;;9.82;100.00;99438.09;7392832;19;20454;-59
2022/03/09 01:35:10;;;;;;;4.43;1.65;;;;;;;9.64;100.00;99438.28;7392807;19;20015;-59
2022/03/09 01:37:36;;;;;;;4.35;3.03;;;;;;;9.49;100.00;99426.38;7391223;19;20074;-59
2022/03/09 01:40:02;;;;;;;6.72;2.63;;;;;;;9.41;100.00;99416.91;7391911;19;20014;-59
2022/03/09 01:42:28;;;;;;;13.95;4.93;;;;;;;9.28;100.00;99416.41;7389210;19;20471;-59
2022/03/09 01:45:00;;;;;;;4.88;2.70;;;;;;;9.21;100.00;99411.22;7387968;19;20007;-59
2022/03/09 01:47:25;;;;;;;9.32;3.92;;;;;;;9.08;100.00;99414.25;7390920;19;20078;-59
2022/03/09 01:49:50;;;;;;;14.05;3.70;;;;;;;9.08;100.00;99425.38;7392325;19;20043;-59
2022/03/09 01:52:16;;;;;;;8.27;4.18;;;;;;;9.13;100.00;99428.28;7392160;19;20015;-59
2022/03/09 01:54:42;;;;;;;8.98;2.92;;;;;;;9.29;100.00;99429.06;7390702;19;20020;-59
2022/03/09 01:57:08;;;;;;;7.80;3.53;;;;;;;9.43;100.00;99440.19;7393544;19;20368;-59
2022/03/09 01:59:34;;;;;;;8.90;3.67;;;;;;;9.54;100.00;99428.50;7392264;19;20014;-59
2022/03/09 02:01:59;;;;;;;2.70;2.50;;;;;;;9.74;100.00;99425.81;7392910;19;20038;-60
2022/03/09 02:04:25;;;;;;;18.48;4.32;;;;;;;9.86;100.00;99421.97;7391773;19;20042;-59
2022/03/09 02:06:50;;;;;;;9.57;4.50;;;;;;;9.90;100.00;99422.53;7401401;19;20014;-59
2022/03/09 02:12:00;;;;;;;8.05;3.80;;;;;;;10.01;100.00;99422.72;7407077;19;20006;-59
2022/03/09 02:14:30;;;;;;;10.63;3.25;;;;;;;10.12;100.00;99416.59;7405922;19;20006;-60
2022/03/09 02:16:58;;;;;;;13.23;3.20;;;;;;;10.23;100.00;99411.19;7406042;19;20343;-59
2022/03/09 02:19:24;;;;;;;5.57;3.75;;;;;;;10.27;100.00;99404.19;7405343;19;20010;-59
2022/03/09 02:21:55;;;;;;;7.30;4.53;;;;;;;10.37;100.00;99399.25;7407414;19;20031;-60
2022/03/09 02:24:22;;;;;;;14.32;3.80;;;;;;;10.46;100.00;99405.44;7405621;19;20027;-48
2022/03/09 02:26:49;;;;;;;6.72;3.80;;;;;;;10.55;100.00;99404.56;7406102;19;20021;-48
2022/03/09 02:29:15;;;;;;;8.23;1.90;;;;;;;10.61;100.00;99403.38;7406579;19;20037;-48
2022/03/09 02:31:40;;;;;;;9.93;2.67;;;;;;;10.65;100.00;99406.72;7406177;19;20387;-48
2022/03/09 02:34:06;;;;;;;21.58;4.50;;;;;;;10.68;100.00;99408.53;7404768;19;20356;-48
2022/03/09 02:36:31;;;;;;;6.63;2.50;;;;;;;10.73;100.00;99409.09;7404843;19;20030;-47
2022/03/09 02:38:58;;;;;;;12.40;3.08;;;;;;;10.73;100.00;99409.09;7405380;19;20030;-48
2022/03/09 02:41:26;;;;;;;4.90;1.77;;;;;;;10.73;100.00;99415.44;7405274;19;20455;-48
2022/03/09 02:43:51;;;;;;;13.45;3.20;;;;;;;10.73;100.00;99409.09;7403603;19;20078;-48
2022/03/09 02:46:17;;;;;;;5.07;3.08;;;;;;;10.72;100.00;99413.13;7404579;19;20010;-48
2022/03/09 02:48:44;;;;;;;10.10;2.65;;;;;;;10.68;100.00;99414.09;7404545;19;20522;-48
2022/03/09 02:51:10;;;;;;;8.57;3.55;;;;;;;10.69;100.00;99414.88;7405514;19;20003;-47
2022/03/09 02:53:36;;;;;;;2.58;2.17;;;;;;;10.71;100.00;99406.03;7404677;19;20375;-47
2022/03/09 02:56:01;;;;;;;8.43;2.53;;;;;;;10.76;100.00;99396.97;7404802;19;20034;-47
2022/03/09 02:58:27;;;;;;;7.00;2.45;;;;;;;10.82;100.00;99406.16;7404866;19;20011;-47
2022/03/09 03:00:53;;;;;;;4.53;1.67;;;;;;;10.95;100.00;99403.78;7407478;19;20009;-48
2022/03/09 03:03:19;;;;;;;4.68;2.40;;;;;;;10.93;100.00;99411.88;7404334;19;20003;-48
2022/03/09 03:05:44;;;;;;;6.55;2.00;;;;;;;10.84;100.00;99398.09;7405313;19;20019;-47
2022/03/09 03:08:09;;;;;;;4.38;1.67;;;;;;;10.86;100.00;99406.72;7405068;19;20010;-47
2022/03/09 03:10:35;;;;;;;5.80;3.15;;;;;;;10.85;100.00;99394.06;7405235;19;20015;-48
2022/03/09 03:13:00;;;;;;;14.07;3.08;;;;;;;10.82;100.00;99395.78;7404148;19;20033;-47
2022/03/09 03:15:26;;;;;;;3.78;2.10;;;;;;;10.83;100.00;99396.56;7404685;19;20358;-48
2022/03/09 03:17:52;;;;;;;16.27;2.40;;;;;;;10.80;100.00;99397.53;7398636;19;20006;-48
2022/03/09 03:20:17;;;;;;;8.88;3.50;;;;;;;10.83;100.00;99402.16;7396272;19;20368;-49
2022/03/09 03:22:43;;;;;;;7.40;2.88;;;;;;;10.82;100.00;99400.59;7397766;19;20017;-48
2022/03/09 03:25:08;;;;;;;5.93;1.85;;;;;;;10.80;100.00;99403.09;7397509;19;20010;-48
2022/03/09 03:27:34;;;;;;;3.72;1.77;;;;;;;10.75;100.00;99398.22;7396868;19;20016;-48
2022/03/09 03:29:59;;;;;;;16.77;3.60;;;;;;;10.66;100.00;99399.13;7397607;19;20014;-47
2022/03/09 03:32:25;;;;;;;7.43;2.75;;;;;;;10.50;100.00;99392.09;7395913;19;20011;-47
2022/03/09 03:34:50;;;;;;;11.48;2.80;;;;;;;10.40;100.00;99393.47;7397764;19;20014;-48
2022/03/09 03:37:16;;;;;;;8.65;2.67;;;;;;;10.31;100.00;99388.03;7397692;19;20019;-47
2022/03/09 03:39:41;;;;;;;8.02;3.17;;;;;;;10.25;100.00;99398.31;7396091;19;20015;-47
2022/03/09 03:42:07;;;;;;;5.30;2.50;;;;;;;10.16;100.00;99395.66;7396983;19;20025;-48
2022/03/09 03:44:33;;;;;;;3.00;1.58;;;;;;;10.07;100.00;99404.09;7396732;19;20026;-48
2022/03/09 03:46:58;;;;;;;3.33;1.98;;;;;;;9.97;100.00;99405.47;7397067;19;20009;-48
2022/03/09 03:49:24;;;;;;;9.75;3.05;;;;;;;9.85;100.00;99407.28;7395223;19;20017;-48
2022/03/09 03:51:50;;;;;;;5.88;2.28;;;;;;;9.84;100.00;99413.34;7397013;19;20072;-47
2022/03/09 03:54:15;;;;;;;20.15;2.78;;;;;;;9.88;100.00;99422.25;7396290;19;20348;-48
2022/03/09 03:56:41;;;;;;;4.07;1.70;;;;;;;9.90;100.00;99422.53;7394913;19;20497;-48
2022/03/09 03:59:07;;;;;;;10.60;2.88;;;;;;;9.96;100.00;99426.19;7397129;19;20019;-47
2022/03/09 04:01:32;;;;;;;5.40;2.67;;;;;;;9.98;100.00;99417.38;7398269;19;20015;-47
2022/03/09 04:03:58;;;;;;;7.68;2.45;;;;;;;9.99;100.00;99414.09;7394929;19;20011;-48
2022/03/09 04:06:24;;;;;;;14.27;3.65;;;;;;;9.97;100.00;99411.03;7395197;19;20009;-48
2022/03/09 04:08:49;;;;;;;12.10;4.95;;;;;;;9.95;100.00;99413.53;7395776;19;20014;-47
2022/03/09 04:11:15;;;;;;;8.68;3.33;;;;;;;9.91;100.00;99402.59;7395010;19;20029;-47
2022/03/09 04:13:42;;;;;;;5.40;2.35;;;;;;;9.91;100.00;99407.41;7396527;19;20002;-48
2022/03/09 04:16:08;;;;;;;9.73;2.88;;;;;;;9.83;100.00;99414.59;7396112;19;20034;-48
2022/03/09 04:18:34;;;;;;;12.80;2.65;;;;;;;9.80;100.00;99418.34;7396037;19;20010;-48
2022/03/09 04:21:00;;;;;;;11.05;3.22;;;;;;;9.82;100.00;99415.84;7396708;19;20014;-47
2022/03/09 04:23:26;;;;;;;7.80;2.03;;;;;;;9.80;100.00;99413.56;7395086;19;20488;-48
2022/03/09 04:25:51;;;;;;;8.07;3.33;;;;;;;9.78;100.00;99420.84;7395513;19;20011;-48
2022/03/09 04:28:17;;;;;;;4.47;2.65;;;;;;;9.79;100.00;99416.78;7391086;19;20376;-49
2022/03/09 04:30:44;;;;;;;5.57;2.83;;;;;;;9.77;100.00;99420.06;7395143;19;20021;-47
2022/03/09 04:33:10;;;;;;;10.27;3.00;;;;;;;9.86;100.00;99433.88;7395166;19;20010;-47
2022/03/09 04:35:36;;;;;;;15.48;3.15;;;;;;;9.96;100.00;99431.75;7394639;19;20007;-47
2022/03/09 04:38:02;;;;;;;2.25;1.88;;;;;;;10.01;100.00;99444.19;7394011;19;20007;-48
2022/03/09 04:40:28;;;;;;;7.97;1.95;;;;;;;10.04;100.00;99444.03;7395238;19;20022;-48
2022/03/09 04:42:53;;;;;;;10.43;3.28;;;;;;;10.12;100.00;99438.84;7394860;19;20013;-48
2022/03/09 04:45:19;;;;;;;12.10;3.28;;;;;;;10.12;100.00;99444.41;7394005;19;20018;-48
2022/03/09 04:47:44;;;;;;;20.95;2.20;;;;;;;10.12;100.00;99439.63;7394611;19;20019;-48
2022/03/09 04:50:10;;;;;;;4.93;1.83;;;;;;;10.15;100.00;99429.53;7396108;19;20007;-48
2022/03/09 04:52:36;;;;;;;6.50;2.22;;;;;;;10.18;100.00;99429.34;7394218;19;20007;-48
2022/03/09 04:55:02;;;;;;;9.15;2.20;;;;;;;10.14;100.00;99431.56;7394390;19;20007;-48
2022/03/09 04:57:27;;;;;;;3.65;2.03;;;;;;;10.10;100.00;99424.63;7393396;19;20031;-48
2022/03/09 04:59:53;;;;;;;2.38;2.17;;;;;;;10.13;100.00;99441.16;7394222;19;20375;-47
2022/03/09 05:02:19;;;;;;;4.53;1.65;;;;;;;10.11;100.00;99431.75;7394962;19;20011;-48
2022/03/09 05:04:44;;;;;;;2.85;2.00;;;;;;;10.06;100.00;99427.63;7394661;19;20408;-48
2022/03/09 05:07:10;;;;;;;4.28;1.35;;;;;;;10.07;100.00;99420.78;7394523;19;20062;-47
2022/03/09 05:09:35;;;;;;;8.43;2.17;;;;;;;9.98;100.00;99418.13;7393363;19;20019;-47
2022/03/09 05:12:02;;;;;;;13.32;3.13;;;;;;;9.94;100.00;99417.53;7395437;19;20962;-47
2022/03/09 05:14:28;;;;;;;6.68;2.38;;;;;;;9.98;100.00;99412.56;7394218;19;20506;-48
2022/03/09 05:16:54;;;;;;;3.75;1.85;;;;;;;9.96;100.00;99437.31;7394822;19;20006;-47
2022/03/09 05:19:19;;;;;;;2.72;0.73;;;;;;;9.98;100.00;99428.50;7394384;19;20007;-48
2022/03/09 05:21:45;;;;;;;7.15;2.22;;;;;;;9.95;100.00;99427.44;7395578;19;20007;-47
2022/03/09 05:24:11;;;;;;;1.60;1.50;;;;;;;9.99;100.00;99425.22;7393672;19;20026;-47
2022/03/09 05:26:37;;;;;;;4.63;2.70;;;;;;;9.98;100.00;99420.91;7393752;19;20011;-48
2022/03/09 05:29:03;;;;;;;11.70;1.60;;;;;;;9.98;100.00;99423.69;7392842;19;20010;-48
2022/03/09 05:31:28;;;;;;;5.97;1.33;;;;;;;9.97;100.00;99422.16;7394148;19;20355;-47
2022/03/09 05:33:54;;;;;;;2.53;1.75;;;;;;;9.94;100.00;99415.53;7393626;19;20007;-60
2022/03/09 05:36:19;;;;;;;2.22;2.03;;;;;;;9.93;100.00;99432.72;7392605;19;20014;-59
2022/03/09 05:38:45;;;;;;;3.60;1.75;;;;;;;9.93;100.00;99432.72;7393086;19;20163;-59
2022/03/09 05:41:11;;;;;;;1.88;1.15;;;;;;;9.92;100.00;99429.16;7390969;19;20101;-59
2022/03/09 05:43:36;;;;;;;6.93;2.03;;;;;;;9.96;100.00;99431.00;7392745;19;21072;-59
2022/03/09 05:46:03;;;;;;;5.15;1.15;;;;;;;9.96;100.00;99426.19;7394974;19;20058;-60
2022/03/09 05:48:28;;;;;;;6.85;2.08;;;;;;;10.01;100.00;99422.72;7395075;19;20017;-59
2022/03/09 05:50:56;;;;;;;7.43;1.90;;;;;;;10.07;100.00;99423.56;7393260;19;20006;-59
2022/03/09 05:53:21;;;;;;;14.10;1.45;;;;;;;10.05;100.00;99423.28;7391030;19;20019;-59
2022/03/09 05:55:47;;;;;;;9.68;2.05;;;;;;;10.10;100.00;99430.97;7392931;19;20355;-47
2022/03/09 05:58:12;;;;;;;1.92;1.83;;;;;;;10.14;100.00;99426.00;7392799;19;20010;-47
2022/03/09 06:00:38;;;;;;;2.33;0.98;;;;;;;10.11;100.00;99431.75;7393512;19;20038;-47
2022/03/09 06:03:03;;;;;;;3.72;1.63;;;;;;;10.13;100.00;99432.81;7392883;19;20010;-48
2022/03/09 06:05:29;;;;;;;5.32;1.88;;;;;;;10.17;100.00;99433.38;7389245;19;20006;-48
2022/03/09 06:07:54;;;;;;;5.38;1.67;;;;;;;10.19;100.00;99439.22;7392547;19;20011;-47
2022/03/09 06:10:20;;;;;;;5.32;1.80;;;;;;;10.19;100.00;99432.88;7390825;19;20463;-48
2022/03/09 06:12:45;;;;;;;7.72;1.50;;;;;;;10.20;100.00;99429.63;7392336;19;20018;-48
2022/03/09 06:15:11;;;;;;;2.15;1.60;;;;;;;10.22;100.00;99427.13;7392726;19;20485;-47
2022/03/09 06:17:47;;;;;;;1.75;1.20;;;;;;;10.21;100.00;99425.59;7388220;19;20027;-47
2022/03/09 06:20:22;;;;;;;7.63;1.73;;;;;;;10.17;100.00;99430.59;7389584;19;20014;-47
2022/03/09 06:22:48;;;;;;;6.47;1.45;;;;;;;10.18;100.00;99437.69;7388452;19;20006;-48
2022/03/09 06:25:15;;;;;;;9.88;1.30;;;;;;;10.15;100.00;99438.66;7388031;19;20058;-47
2022/03/09 06:27:45;;;;;;;3.20;0.95;;;;;;;10.12;100.00;99434.06;7386047;19;20367;-48
2022/03/09 06:30:13;;;;;;;13.25;1.98;;;;;;;10.12;100.00;99428.50;7388590;19;20014;-48
2022/03/09 06:32:41;;;;;;;8.13;1.92;;;;;;;10.15;100.00;99430.31;7389204;19;20074;-48
2022/03/09 06:35:08;;;;;;;19.25;2.67;;;;;;;10.14;100.00;99425.22;7392377;19;20368;-48
2022/03/09 06:37:35;;;;;;;5.30;2.78;;;;;;;10.12;100.00;99425.72;7390726;19;20024;-48
2022/03/09 06:40:02;;;;;;;7.75;3.03;;;;;;;10.05;100.00;99426.06;7391290;19;20030;-47
2022/03/09 06:42:29;;;;;;;1.23;0.82;;;;;;;9.98;100.00;99423.69;7391546;19;20006;-48
2022/03/09 06:44:55;;;;;;;1.88;0.73;;;;;;;9.93;100.00;99427.94;7390774;19;20011;-48
2022/03/09 06:47:21;;;;;;;1.25;0.90;;;;;;;9.89;100.00;99434.94;7390662;19;20074;-48
2022/03/09 06:49:47;;;;;;;3.65;1.00;;;;;;;9.83;100.00;99431.28;7392231;19;20361;-48
2022/03/09 06:52:13;;;;;;;5.30;1.55;;;;;;;9.73;100.00;99435.41;7392917;19;20023;-48
2022/03/09 06:54:38;;;;;;;6.75;2.15;;;;;;;9.67;100.00;99437.31;7398278;19;20010;-47
2022/03/09 06:57:04;;;;;;;3.63;1.77;;;;;;;9.62;100.00;99440.78;7397431;19;20025;-47
2022/03/09 06:59:30;;;;;;;5.70;1.50;;;;;;;9.67;100.00;99448.44;7398330;19;20167;-48
2022/03/09 07:01:55;;;;;;;2.13;1.25;;;;;;;9.66;100.00;99449.69;7400441;19;20038;-47
2022/03/09 07:04:21;;;;;;;8.10;1.00;;;;;;;9.61;100.00;99445.59;7397450;19;20508;-48
2022/03/09 07:06:47;;;;;;;1.80;0.98;;;;;;;9.73;100.00;99452.09;7398806;19;20010;-48
2022/03/09 07:09:12;;;;;;;6.90;1.08;;;;;;;9.82;100.00;99454.78;7398429;19;20407;-48
2022/03/09 07:11:39;;;;;;;1.27;1.02;;;;;;;9.83;100.00;99453.53;7398097;19;20078;-48
2022/03/09 07:14:04;;;;;;;14.43;1.65;;;;;;;9.85;100.00;99454.56;7398455;19;20014;-48
2022/03/09 07:16:30;;;;;;;2.58;1.27;;;;;;;9.89;100.00;99460.72;7397623;19;20022;-48
2022/03/09 07:18:56;;;;;;;1.95;1.45;;;;;;;9.93;100.00;99466.09;7397898;19;20011;-59
2022/03/09 07:21:22;;;;;;;5.57;0.80;;;;;;;9.91;100.00;99454.69;7396715;19;20015;-59
2022/03/09 07:23:48;;;;;;;5.97;0.68;;;;;;;9.92;100.00;99453.41;7397779;19;20351;-59
2022/03/09 07:26:13;;;;;;;7.88;1.33;;;;;;;9.90;100.00;99455.91;7397683;19;20470;-59
2022/03/09 07:28:39;;;;;;;9.15;1.35;;;;;;;9.88;100.00;99441.72;7396857;19;20014;-60
2022/03/09 07:31:05;;;;;;;11.60;2.97;;;;;;;9.79;100.00;99450.16;7398185;19;20013;-60
2022/03/09 07:33:30;;;;;;;4.10;1.25;;;;;;;9.80;100.00;99462.84;7396421;19;20051;-58
2022/03/09 07:35:56;;;;;;;2.70;2.10;;;;;;;9.79;100.00;99461.28;7397008;19;20348;-60
2022/03/09 07:38:22;;;;;;;2.80;0.75;;;;;;;9.83;100.00;99462.63;7396709;19;20011;-59
2022/03/09 07:40:48;;;;;;;6.93;1.13;;;;;;;9.85;100.00;99470.50;7398836;19;20455;-47
2022/03/09 07:43:13;;;;;;;1.90;0.95;;;;;;;9.89;100.00;99471.84;7397528;19;20011;-47
2022/03/09 07:45:39;;;;;;;0.68;0.45;;;;;;;9.96;100.00;99470.69;7396295;19;20018;-48
2022/03/09 07:48:05;;;;;;;2.05;1.10;;;;;;;10.05;100.00;99478.19;7397473;19;20014;-47
2022/03/09 07:50:30;;;;;;;1.20;0.80;;;;;;;10.12;100.00;99470.22;7397292;19;20073;-47
2022/03/09 07:52:56;;;;;;;7.15;0.52;;;;;;;10.17;100.00;99468.78;7396979;19;20006;-59
2022/03/09 07:55:22;;;;;;;8.75;1.00;;;;;;;10.23;100.00;99470.41;7395555;19;20427;-59
2022/03/09 07:57:48;;;;;;;2.30;0.60;;;;;;;10.34;100.00;99473.34;7397146;19;20499;-59
2022/03/09 08:00:14;;;;;;;1.42;0.88;;;;;;;10.54;100.00;99476.19;7397848;19;20500;-59
2022/03/09 08:02:42;;;;;;;3.92;1.05;;;;;;;10.70;100.00;99471.34;7395938;19;20044;-59
2022/03/09 08:05:08;;;;;;;2.30;1.17;;;;;;;10.83;100.00;99474.56;7396138;19;20452;-59
2022/03/09 08:07:34;;;;;;;5.90;0.88;;;;;;;10.95;100.00;99473.44;7394130;19;20021;-59
2022/03/09 08:10:00;;;;;;;7.38;1.52;;;;;;;11.05;100.00;99472.03;7397642;19;20006;-59
2022/03/09 08:12:27;;;;;;;1.55;0.75;;;;;;;11.08;100.00;99473.88;7395056;19;20006;-58
2022/03/09 08:14:53;;;;;;;3.65;1.13;;;;;;;11.15;100.00;99479.03;7395010;19;20010;-59
2022/03/09 08:17:19;;;;;;;2.85;0.95;;;;;;;11.23;100.00;99466.97;7396160;19;20014;-58
2022/03/09 08:19:45;;;;;;;0.75;0.75;;;;;;;11.26;100.00;99473.59;7396446;19;20532;-59
2022/03/09 08:22:11;;;;;;;2.50;1.30;;;;;;;11.35;100.00;99479.75;7394323;19;20003;-59
2022/03/09 08:24:37;;;;;;;0.80;0.80;;;;;;;11.38;100.00;99464.06;7394393;19;20014;-47
2022/03/09 08:27:06;;;;;;;3.03;1.25;;;;;;;11.49;100.00;99475.34;7395750;19;20510;-47
2022/03/09 08:29:31;;;;;;;2.40;1.08;;;;;;;11.59;100.00;99471.13;7393821;19;20031;-47
2022/03/09 08:31:57;;;;;;;14.05;1.20;;;;;;;11.62;100.00;99480.56;7397400;19;20010;-47
2022/03/09 08:34:23;;;;;;;8.35;1.23;;;;;;;11.66;100.00;99481.09;7395110;19;20028;-48
2022/03/09 08:36:48;;;;;;;3.22;1.52;;;;;;;11.62;100.00;99480.56;7396264;19;20010;-47
2022/03/09 08:39:14;;;;;;;16.90;1.15;;;;;;;11.65;100.00;99474.75;7395030;19;20027;-47
2022/03/09 08:41:39;;;;;;;0.63;0.30;;;;;;;11.72;100.00;99484.72;7395159;19;20017;-47
2022/03/09 08:44:05;;;;;;;1.48;0.52;;;;;;;11.77;100.00;99484.78;7394244;19;20358;-48
2022/03/09 08:46:31;;;;;;;3.88;1.75;;;;;;;11.78;100.00;99480.00;7393667;19;20474;-48
2022/03/09 08:48:57;;;;;;;0.70;0.60;;;;;;;11.82;100.00;99475.72;7394700;19;20007;-47
2022/03/09 08:51:23;;;;;;;11.48;1.25;;;;;;;11.84;100.00;99478.78;7395067;19;20397;-48
2022/03/09 08:53:49;;;;;;;1.02;0.47;;;;;;;11.91;100.00;99472.75;7394813;19;20019;-47
2022/03/09 08:56:15;;;;;;;0.85;0.52;;;;;;;11.83;100.00;99468.88;7394771;19;20025;-47
2022/03/09 08:58:41;;;;;;;5.38;1.05;;;;;;;11.77;100.00;99470.06;7394275;19;20048;-47
2022/03/09 09:01:07;;;;;;;2.05;1.13;;;;;;;11.71;100.00;99464.47;7396389;19;20010;-47
2022/03/09 09:03:33;;;;;;;0.60;0.60;;;;;;;11.71;100.00;99447.72;7393789;19;20065;-47
2022/03/09 09:06:00;;;;;;;0.20;0.10;;;;;;;11.66;100.00;99451.19;7394267;19;20010;-47
2022/03/09 09:08:25;;;;;;;0.65;0.65;;;;;;;11.71;100.00;99441.38;7394141;19;20006;-47
2022/03/09 09:10:51;;;;;;;1.45;0.88;;;;;;;11.80;100.00;99449.56;7395551;19;20015;-47
2022/03/09 09:13:16;;;;;;;3.72;0.68;;;;;;;11.82;100.00;99442.25;7394391;19;20439;-47
2022/03/09 09:15:42;;;;;;;0.93;0.73;;;;;;;11.80;100.00;99444.75;7391139;19;20021;-47
2022/03/09 09:18:08;;;;;;;0.20;0.20;;;;;;;11.78;100.00;99446.50;7393588;19;20014;-47
2022/03/09 09:20:35;;;;;;;7.10;1.08;;;;;;;11.80;100.00;99444.75;7392294;19;21104;-47
2022/03/09 09:23:01;;;;;;;1.00;0.40;;;;;;;11.85;100.00;99455.19;7394274;19;20031;-47
2022/03/09 09:25:27;;;;;;;1.50;0.50;;;;;;;11.90;100.00;99448.91;7393741;19;20011;-48
2022/03/09 09:27:56;;;;;;;4.78;0.95;;;;;;;11.96;100.00;99440.56;7392493;19;20046;-47
2022/03/09 09:30:23;;;;;;;4.18;0.70;;;;;;;12.10;100.00;99442.47;7393815;19;20458;-48
2022/03/09 09:32:49;;;;;;;1.95;0.35;;;;;;;12.07;100.00;99449.81;7393756;19;20014;-47
2022/03/09 09:35:16;;;;;;;0.63;0.63;;;;;;;12.08;100.00;99456.91;7393649;19;20017;-59
2022/03/09 09:37:43;;;;;;;0.17;0.13;;;;;;;12.17;100.00;99462.31;7393282;19;19999;-59
2022/03/09 09:40:10;;;;;;;2.33;0.52;;;;;;;12.32;100.00;99455.81;7394358;19;20038;-58
2022/03/09 09:42:37;;;;;;;5.40;1.98;;;;;;;12.48;100.00;99458.72;7392577;19;20024;-59
2022/03/09 09:45:03;;;;;;;7.72;0.60;;;;;;;12.70;100.00;99458.84;7392702;19;20011;-59
2022/03/09 09:47:30;;;;;;;0.45;0.40;;;;;;;12.97;100.00;99457.47;7392081;19;20010;-58
2022/03/09 09:49:56;;;;;;;1.50;0.85;;;;;;;13.13;100.00;99458.81;7393755;19;20017;-59
2022/03/09 09:52:36;;;;;;;0.98;0.60;;;;;;;13.23;100.00;99448.97;7393077;19;20018;-59
2022/03/09 09:55:07;;;;;;;8.15;0.80;;;;;;;13.34;100.00;99460.94;7394353;19;20018;-59
2022/03/09 09:57:32;;;;;;;0.30;0.30;;;;;;;13.49;100.00;99453.09;7391843;19;20019;-59
2022/03/09 09:59:58;;;;;;;2.00;0.38;;;;;;;13.50;100.00;99457.44;7394274;19;20029;-48
2022/03/09 10:02:24;;;;;;;0.50;0.13;;;;;;;13.48;100.00;99459.97;7392098;19;20023;-47
2022/03/09 10:04:50;;;;;;;6.40;0.68;;;;;;;13.53;100.00;99453.63;7391995;19;20014;-59
2022/03/09 10:07:16;;;;;;;5.25;0.70;;;;;;;13.58;100.00;99457.69;7392228;19;20040;-59
2022/03/09 10:09:43;;;;;;;0.20;0.20;;;;;;;13.65;100.00;99449.56;7392433;19;20013;-48
2022/03/09 10:12:12;;;;;;;4.60;1.30;;;;;;;13.62;100.00;99453.38;7392337;19;20062;-47
2022/03/09 10:14:52;;;;;;;2.78;0.20;;;;;;;13.64;100.00;99444.50;7391617;19;20015;-47
2022/03/09 10:17:19;;;;;;;0.75;0.65;;;;;;;13.76;100.00;99445.25;7390761;19;20018;-49
2022/03/09 10:19:52;;;;;;;0.43;0.20;;;;;;;13.89;100.00;99445.50;7391818;19;20019;-47
2022/03/09 10:22:22;;;;;;;1.25;0.28;;;;;;;13.95;100.00;99446.28;7391190;19;20058;-48
2022/03/09 10:24:48;;;;;;;0.55;0.50;;;;;;;14.06;100.00;99440.69;7391816;19;20032;-47
2022/03/09 10:27:50;;;;;;;4.60;0.73;;;;;;;14.05;100.00;99439.16;7394041;19;20066;-48
2022/03/09 10:30:18;;;;;;;0.47;0.43;;;;;;;14.07;100.00;99447.81;7399668;19;20007;-58
2022/03/09 10:36:01;;;;;;;1.30;0.85;;;;;;;14.32;100.00;99430.75;7397568;19;20026;-55
2022/03/09 10:38:28;;;;;;;3.63;0.43;;;;;;;14.24;100.00;99428.97;7394450;19;20014;-54
2022/03/09 10:40:58;;;;;;;9.48;1.77;;;;;;;14.19;100.00;99432.53;7398680;19;20018;-57
2022/03/09 10:43:29;;;;;;;2.95;1.25;;;;;;;14.15;100.00;99443.22;7398527;19;20007;-55
2022/03/09 10:46:13;;;;;;;4.50;1.17;;;;;;;14.10;100.00;99429.97;7398482;19;20010;-55
2022/03/09 10:48:50;;;;;;;6.15;0.40;;;;;;;14.13;100.00;99428.97;7396201;19;20011;-55
2022/03/09 10:51:31;;;;;;;0.32;0.30;;;;;;;14.15;100.00;99432.78;7396476;19;20010;-55
2022/03/09 10:53:58;;;;;;;1.52;0.50;;;;;;;14.15;100.00;99427.19;7397147;19;20010;-53
2022/03/09 10:56:24;;;;;;;0.43;0.40;;;;;;;14.16;100.00;99427.97;7397060;19;20423;-54
2022/03/09 10:58:49;;;;;;;4.38;0.77;;;;;;;14.17;100.00;99430.25;7397045;19;20031;-54
2022/03/09 11:01:17;;;;;;;6.22;0.52;;;;;;;14.21;100.00;99435.56;7399519;19;20019;-54
2022/03/09 11:03:43;;;;;;;8.95;1.10;;;;;;;14.30;100.00;99446.56;7396109;19;20014;-47
2022/03/09 11:06:10;;;;;;;3.50;0.85;;;;;;;14.40;100.00;99442.22;7397545;19;20021;-47
2022/03/09 11:08:38;;;;;;;9.50;1.30;;;;;;;14.48;100.00;99448.84;7397728;19;20075;-47
2022/03/09 11:11:05;;;;;;;2.30;0.25;;;;;;;14.53;100.00;99445.25;7397707;19;20026;-47
2022/03/09 11:13:34;;;;;;;0.20;0.20;;;;;;;14.67;100.00;99449.03;7396233;19;20017;-48
2022/03/09 11:16:00;;;;;;;7.45;0.75;;;;;;;14.77;100.00;99448.22;7397268;19;20010;-48
2022/03/09 11:18:28;;;;;;;1.45;0.30;;;;;;;14.93;100.00;99450.22;7397107;19;20094;-48
2022/03/09 11:21:00;;;;;;;2.72;0.73;;;;;;;14.98;100.00;99446.66;7397073;19;20021;-48
2022/03/09 11:23:27;;;;;;;9.75;0.50;;;;;;;15.08;100.00;99447.88;7396834;19;20050;-48
2022/03/09 11:25:58;;;;;;;1.73;0.38;;;;;;;15.30;100.00;99449.81;7397195;19;20010;-46
2022/03/09 11:28:26;;;;;;;1.42;0.55;;;;;;;15.45;100.00;99443.91;7396397;19;20448;-48